Time;durP1;ratioP1;P1;durP2;ratioP2;P2;SDS_P1;SDS_P2;PMS_P1;PMS_P2;Temp;Humidity;BMP_temperature;BMP_pressure;BME280_temperature;BME280_humidity;BME280_pressure;Samples;Min_cycle;Max_cycle;Signal;HPM_P1;HPM_P2
2023/12/28 00:01:51;;;;;;;2.50;2.23;;;10.60;73.70;;;;;;10529734;28;20188;-83
2023/12/28 00:06:53;;;;;;;2.60;2.37;;;10.70;73.00;;;;;;10539860;28;20232;-83
2023/12/28 00:11:57;;;;;;;2.87;2.67;;;10.70;74.50;;;;;;10548706;28;20227;-83
2023/12/28 00:17:00;;;;;;;2.43;2.23;;;10.70;74.50;;;;;;10546928;28;20220;-84
2023/12/28 00:22:02;;;;;;;3.10;2.30;;;10.80;75.70;;;;;;10541945;28;20196;-84
2023/12/28 00:27:06;;;;;;;7.13;2.97;;;10.70;76.50;;;;;;10538655;28;20211;-84
2023/12/28 00:32:09;;;;;;;2.27;2.10;;;10.60;75.50;;;;;;10550384;28;20215;-83
2023/12/28 00:37:11;;;;;;;3.23;2.90;;;10.50;75.00;;;;;;10541715;28;20219;-83
2023/12/28 00:42:15;;;;;;;4.03;3.63;;;10.50;74.60;;;;;;10546471;28;20199;-83
2023/12/28 00:47:17;;;;;;;4.90;4.30;;;10.50;75.50;;;;;;10544083;28;20231;-82
2023/12/28 00:52:20;;;;;;;2.50;2.30;;;10.30;75.80;;;;;;10543527;28;20216;-82
2023/12/28 00:57:23;;;;;;;16.63;10.30;;;10.30;76.40;;;;;;10541230;28;20656;-82
2023/12/28 01:02:26;;;;;;;4.80;3.37;;;10.20;75.70;;;;;;10530466;28;20203;-82
2023/12/28 01:07:28;;;;;;;3.27;2.67;;;10.20;78.20;;;;;;10542975;28;20219;-81
2023/12/28 01:12:32;;;;;;;2.77;2.60;;;10.10;76.50;;;;;;10543301;28;20341;-82
2023/12/28 01:17:35;;;;;;;1.93;1.83;;;10.10;77.40;;;;;;10533765;28;20680;-82
2023/12/28 01:22:38;;;;;;;2.33;2.23;;;10.10;79.10;;;;;;10532615;28;20188;-82
2023/12/28 01:27:41;;;;;;;2.50;2.30;;;10.00;80.00;;;;;;10534211;28;20219;-82
2023/12/28 01:32:44;;;;;;;2.20;2.10;;;9.90;83.20;;;;;;10527031;28;20188;-82
2023/12/28 01:37:46;;;;;;;2.83;2.63;;;9.90;81.40;;;;;;10541888;28;20681;-81
2023/12/28 01:42:50;;;;;;;8.07;6.67;;;9.80;81.00;;;;;;10532622;28;20246;-81
2023/12/28 01:47:54;;;;;;;6.80;5.77;;;9.60;81.40;;;;;;10533416;28;20632;-82
2023/12/28 01:52:59;;;;;;;4.20;3.80;;;9.40;81.90;;;;;;10535580;28;20203;-82
2023/12/28 01:58:03;;;;;;;4.40;3.57;;;9.40;82.20;;;;;;10533776;28;20227;-79
2023/12/28 02:03:07;;;;;;;2.70;2.50;;;9.20;82.30;;;;;;10511081;28;20245;-82
2023/12/28 02:08:10;;;;;;;2.37;2.17;;;9.20;82.10;;;;;;10548565;28;20269;-82
2023/12/28 02:13:14;;;;;;;3.53;3.23;;;9.30;80.50;;;;;;10536151;28;20218;-82
2023/12/28 02:18:22;;;;;;;2.33;2.13;;;9.30;82.20;;;;;;10550080;28;20249;-82
2023/12/28 02:23:25;;;;;;;3.07;2.50;;;9.30;81.70;;;;;;10537742;28;20207;-82
2023/12/28 02:28:29;;;;;;;2.17;2.07;;;9.30;81.90;;;;;;10536734;28;20797;-82
2023/12/28 02:33:39;;;;;;;2.23;2.13;;;9.30;82.50;;;;;;10535182;28;20223;-82
2023/12/28 02:38:43;;;;;;;3.13;2.20;;;9.20;82.40;;;;;;10539545;28;20192;-82
2023/12/28 02:43:48;;;;;;;3.03;2.80;;;9.20;82.50;;;;;;10538838;28;20219;-82
2023/12/28 02:48:52;;;;;;;2.47;2.27;;;9.10;83.40;;;;;;10546595;28;20224;-82
2023/12/28 02:53:55;;;;;;;2.47;2.30;;;9.00;83.90;;;;;;10540342;28;20235;-82
2023/12/28 02:58:59;;;;;;;2.13;2.03;;;8.90;84.70;;;;;;10547031;28;20200;-82
2023/12/28 03:04:01;;;;;;;2.80;2.27;;;8.90;85.70;;;;;;10532638;28;20220;-83
2023/12/28 03:09:04;;;;;;;3.67;3.33;;;8.70;85.40;;;;;;10545569;28;20241;-82
2023/12/28 03:14:08;;;;;;;4.10;3.30;;;8.60;85.90;;;;;;10545076;28;20222;-80
2023/12/28 03:19:11;;;;;;;2.80;2.60;;;8.50;87.20;;;;;;10531610;28;20191;-82
2023/12/28 03:24:13;;;;;;;3.50;2.90;;;8.40;87.80;;;;;;10547592;28;20685;-82
2023/12/28 03:29:17;;;;;;;3.07;2.87;;;8.30;88.20;;;;;;10535743;28;20215;-81
2023/12/28 03:34:19;;;;;;;2.93;2.73;;;8.20;88.90;;;;;;10514365;28;20238;-81
2023/12/28 03:39:22;;;;;;;2.93;2.73;;;8.10;89.00;;;;;;10530918;28;20197;-82
2023/12/28 03:44:25;;;;;;;2.80;2.23;;;8.00;89.30;;;;;;10531338;28;20215;-82
2023/12/28 03:49:28;;;;;;;2.67;2.47;;;8.00;89.20;;;;;;10539539;28;20269;-82
2023/12/28 03:54:30;;;;;;;2.70;2.50;;;8.00;89.20;;;;;;10539256;28;20227;-82
2023/12/28 03:59:34;;;;;;;2.70;2.10;;;8.00;89.60;;;;;;10543623;28;20184;-82
2023/12/28 04:04:36;;;;;;;3.57;3.27;;;8.10;89.40;;;;;;10525686;28;20227;-82
2023/12/28 04:09:38;;;;;;;3.70;3.40;;;8.20;90.40;;;;;;10525706;28;20215;-82
2023/12/28 04:14:42;;;;;;;3.80;3.47;;;8.30;90.50;;;;;;10522185;28;20273;-83
2023/12/28 04:19:44;;;;;;;3.10;2.90;;;8.40;90.70;;;;;;10525367;28;20199;-80
2023/12/28 04:24:47;;;;;;;3.30;2.93;;;8.50;90.50;;;;;;10524105;28;20223;-81
2023/12/28 04:29:51;;;;;;;2.93;2.73;;;8.50;90.60;;;;;;10527307;28;20684;-82
2023/12/28 04:34:53;;;;;;;2.87;2.67;;;8.50;90.10;;;;;;10526501;28;20211;-81
2023/12/28 04:39:56;;;;;;;2.73;2.53;;;8.50;89.60;;;;;;10527057;28;20214;-81
2023/12/28 04:44:59;;;;;;;2.73;2.53;;;8.60;89.00;;;;;;10527249;28;20222;-81
2023/12/28 04:50:03;;;;;;;2.50;2.30;;;8.60;89.50;;;;;;10533014;28;20227;-81
2023/12/28 04:55:06;;;;;;;2.70;2.60;;;8.80;89.70;;;;;;10529825;28;20277;-82
2023/12/28 05:00:10;;;;;;;2.43;2.23;;;8.90;89.60;;;;;;10531424;28;20210;-82
2023/12/28 05:05:13;;;;;;;3.30;2.57;;;9.10;89.20;;;;;;10527694;28;20219;-82
2023/12/28 05:10:16;;;;;;;2.50;2.40;;;9.20;89.30;;;;;;10526663;28;20216;-81
2023/12/28 05:15:20;;;;;;;2.73;2.30;;;9.20;89.00;;;;;;10520315;28;20765;-80
2023/12/28 05:20:22;;;;;;;2.80;2.60;;;9.30;88.40;;;;;;10540937;28;20253;-82
2023/12/28 05:25:25;;;;;;;2.40;2.20;;;9.20;87.30;;;;;;10539868;28;20261;-82
2023/12/28 05:30:28;;;;;;;3.33;2.43;;;9.20;87.00;;;;;;10539594;28;20289;-82
2023/12/28 05:35:31;;;;;;;2.57;2.37;;;9.30;86.90;;;;;;10547410;28;20199;-83
2023/12/28 05:40:33;;;;;;;2.70;2.50;;;9.40;87.20;;;;;;10563821;28;20195;-83
2023/12/28 05:45:37;;;;;;;2.57;2.33;;;9.50;87.40;;;;;;10561483;28;20219;-83
2023/12/28 05:50:39;;;;;;;3.50;2.30;;;9.70;88.90;;;;;;10542375;28;20250;-82
2023/12/28 05:55:42;;;;;;;2.33;2.23;;;9.80;89.80;;;;;;10545794;28;20616;-83
2023/12/28 06:00:47;;;;;;;2.10;2.00;;;9.80;88.20;;;;;;10550427;28;20758;-82
2023/12/28 06:05:50;;;;;;;2.70;2.50;;;9.90;88.70;;;;;;10547419;28;20228;-82
2023/12/28 06:10:52;;;;;;;2.30;2.10;;;10.00;86.60;;;;;;10552640;28;20300;-82
2023/12/28 06:15:56;;;;;;;3.20;2.90;;;10.10;87.40;;;;;;10543911;28;20224;-82
2023/12/28 06:20:58;;;;;;;2.23;2.13;;;10.30;87.60;;;;;;10552514;28;20265;-82
2023/12/28 06:26:06;;;;;;;2.20;2.10;;;10.30;87.90;;;;;;10549047;28;20223;-83
2023/12/28 06:31:10;;;;;;;2.97;2.40;;;10.40;88.20;;;;;;10545744;28;20227;-82
2023/12/28 06:36:13;;;;;;;2.93;2.70;;;10.50;89.80;;;;;;10546624;28;20258;-82
2023/12/28 06:41:15;;;;;;;3.93;2.50;;;10.50;89.40;;;;;;10540961;28;20242;-83
2023/12/28 06:46:19;;;;;;;2.30;2.20;;;10.60;89.30;;;;;;10557046;28;20212;-82
2023/12/28 06:51:22;;;;;;;2.43;2.23;;;10.60;89.30;;;;;;10525621;28;20752;-83
2023/12/28 06:56:25;;;;;;;2.20;2.10;;;10.60;89.90;;;;;;10536751;22;20694;-79
2023/12/28 07:01:28;;;;;;;2.23;2.13;;;10.70;90.30;;;;;;10481234;28;20205;-77
2023/12/28 07:06:31;;;;;;;2.67;2.47;;;10.80;90.40;;;;;;10461761;28;20221;-77
2023/12/28 07:11:33;;;;;;;2.43;2.23;;;10.90;90.70;;;;;;10458959;28;20267;-77
2023/12/28 07:16:37;;;;;;;3.73;2.30;;;10.90;90.80;;;;;;10456002;28;20267;-77
2023/12/28 07:21:39;;;;;;;2.50;2.30;;;10.90;90.90;;;;;;10466713;28;20728;-77
2023/12/28 07:26:41;;;;;;;2.47;2.20;;;11.00;90.90;;;;;;10463585;28;20225;-78
2023/12/28 07:31:45;;;;;;;2.57;2.47;;;11.00;91.10;;;;;;10468088;28;20220;-80
2023/12/28 07:36:47;;;;;;;2.33;2.10;;;11.00;91.50;;;;;;10474593;28;20701;-78
2023/12/28 07:41:50;;;;;;;2.07;1.97;;;11.00;91.70;;;;;;10440608;28;20223;-77
2023/12/28 07:46:53;;;;;;;3.13;2.50;;;10.90;91.90;;;;;;10460959;28;20685;-77
2023/12/28 07:51:56;;;;;;;2.27;2.07;;;11.00;92.20;;;;;;10464154;28;20217;-77
2023/12/28 07:56:58;;;;;;;2.53;2.40;;;10.90;92.40;;;;;;10467659;28;20229;-77
2023/12/28 08:02:02;;;;;;;2.63;2.17;;;10.90;92.60;;;;;;10468639;28;20796;-77
2023/12/28 08:07:06;;;;;;;3.07;2.77;;;10.90;93.00;;;;;;10456316;28;20243;-76
2023/12/28 08:12:09;;;;;;;3.73;2.70;;;10.80;93.30;;;;;;10468033;28;20209;-76
2023/12/28 08:17:12;;;;;;;3.57;2.40;;;10.80;93.30;;;;;;10478629;28;20228;-76
2023/12/28 08:22:15;;;;;;;2.87;2.37;;;10.70;93.60;;;;;;10464558;28;20216;-76
2023/12/28 08:27:17;;;;;;;3.60;2.80;;;10.70;93.90;;;;;;10477459;28;20645;-76
2023/12/28 08:32:21;;;;;;;2.43;2.13;;;10.70;94.20;;;;;;10489532;28;20603;-78
2023/12/28 08:37:23;;;;;;;2.40;2.20;;;10.70;94.50;;;;;;10485576;28;20246;-78
2023/12/28 08:42:26;;;;;;;2.27;2.07;;;10.70;94.60;;;;;;10477548;28;20196;-76
2023/12/28 08:47:29;;;;;;;3.77;2.87;;;10.70;94.70;;;;;;10465156;28;20275;-76
2023/12/28 08:52:32;;;;;;;2.67;1.87;;;10.70;94.90;;;;;;10473951;28;20310;-76
2023/12/28 08:57:34;;;;;;;2.57;2.37;;;10.70;95.00;;;;;;10483761;28;20224;-77
2023/12/28 09:02:38;;;;;;;2.40;2.30;;;10.70;95.00;;;;;;10474508;28;20239;-76
2023/12/28 09:07:42;;;;;;;2.60;2.40;;;10.70;95.10;;;;;;10433786;28;21338;-76
2023/12/28 09:12:45;;;;;;;3.20;2.90;;;10.80;95.20;;;;;;10469656;28;20282;-76
2023/12/28 09:17:49;;;;;;;5.30;3.60;;;10.80;95.30;;;;;;10449224;28;20217;-77
2023/12/28 09:22:56;;;;;;;4.80;4.33;;;10.90;95.40;;;;;;10473264;28;20184;-77
2023/12/28 09:27:58;;;;;;;8.73;4.10;;;10.90;95.10;;;;;;10451583;28;20282;-77
2023/12/28 09:33:02;;;;;;;14.73;4.10;;;10.90;95.20;;;;;;10476935;28;20228;-77
2023/12/28 09:38:04;;;;;;;5.97;3.97;;;11.00;95.70;;;;;;10464078;28;20229;-77
2023/12/28 09:43:16;;;;;;;4.30;3.40;;;11.00;95.90;;;;;;10476750;28;20196;-78
2023/12/28 09:48:21;;;;;;;3.50;2.70;;;11.10;96.50;;;;;;10458254;28;20273;-77
2023/12/28 09:53:24;;;;;;;3.00;2.80;;;11.20;96.70;;;;;;10482565;28;20220;-77
2023/12/28 09:58:27;;;;;;;3.03;2.83;;;11.30;96.80;;;;;;10471286;28;20228;-77
2023/12/28 10:03:31;;;;;;;2.87;2.67;;;11.40;96.70;;;;;;10474404;28;20189;-77
2023/12/28 10:08:35;;;;;;;2.00;1.90;;;11.50;96.70;;;;;;10480057;28;20217;-79
2023/12/28 10:13:38;;;;;;;2.43;2.23;;;11.60;96.30;;;;;;10487656;28;20632;-79
2023/12/28 10:18:43;;;;;;;2.53;2.33;;;11.70;96.40;;;;;;10471976;28;20644;-80
2023/12/28 10:23:46;;;;;;;2.67;2.47;;;11.70;96.00;;;;;;10489889;28;20200;-77
2023/12/28 10:28:48;;;;;;;2.20;2.00;;;11.70;95.30;;;;;;10490416;28;20614;-77
2023/12/28 10:33:52;;;;;;;2.23;1.97;;;11.70;94.70;;;;;;10484726;28;20212;-77
2023/12/28 10:38:55;;;;;;;5.23;4.60;;;11.80;94.90;;;;;;10473688;28;20201;-78
2023/12/28 10:44:03;;;;;;;5.20;2.60;;;11.80;95.10;;;;;;10477964;28;20193;-78
2023/12/28 10:49:11;;;;;;;2.73;2.50;;;11.80;95.50;;;;;;10455457;28;20239;-78
2023/12/28 10:54:29;;;;;;;2.23;2.07;;;11.80;95.50;;;;;;10478059;28;20221;-78
2023/12/28 10:59:44;;;;;;;2.20;2.00;;;11.80;95.50;;;;;;10440124;28;20207;-79
2023/12/28 11:04:50;;;;;;;2.07;1.93;;;11.90;95.80;;;;;;10470245;28;20929;-79
2023/12/28 11:09:54;;;;;;;2.30;2.10;;;12.00;95.80;;;;;;10469224;28;20247;-78
2023/12/28 11:14:58;;;;;;;2.00;1.90;;;12.00;96.30;;;;;;10479956;28;20278;-79
2023/12/28 11:20:04;;;;;;;2.10;2.00;;;12.00;96.50;;;;;;10468877;28;20205;-78
2023/12/28 11:25:08;;;;;;;2.20;2.00;;;12.10;96.10;;;;;;10479764;28;20212;-78
2023/12/28 11:30:12;;;;;;;2.10;2.00;;;12.10;96.60;;;;;;10476924;28;20201;-78
2023/12/28 11:35:18;;;;;;;3.33;1.87;;;12.10;96.90;;;;;;10467733;28;20729;-78
2023/12/28 11:40:21;;;;;;;1.80;1.70;;;12.10;97.20;;;;;;10478222;28;20253;-78
2023/12/28 11:45:25;;;;;;;2.30;1.90;;;12.10;97.60;;;;;;10474027;28;20216;-78
2023/12/28 11:50:28;;;;;;;2.37;2.27;;;12.10;98.00;;;;;;10468444;28;20205;-78
2023/12/28 11:55:31;;;;;;;3.07;1.97;;;12.00;98.00;;;;;;10442538;28;20224;-78
2023/12/28 12:00:33;;;;;;;2.00;1.90;;;12.00;98.10;;;;;;10481727;28;20618;-79
2023/12/28 12:05:37;;;;;;;2.43;2.23;;;12.00;98.30;;;;;;10468186;28;20236;-78
2023/12/28 12:10:39;;;;;;;6.47;2.20;;;12.00;98.60;;;;;;10476575;28;20185;-78
2023/12/28 12:15:41;;;;;;;3.43;2.40;;;12.00;98.80;;;;;;10468313;28;20611;-78
2023/12/28 12:20:45;;;;;;;2.90;2.50;;;12.00;98.70;;;;;;10466267;28;20200;-78
2023/12/28 12:25:48;;;;;;;2.90;2.13;;;12.10;98.60;;;;;;10471111;28;20221;-78
2023/12/28 12:30:52;;;;;;;2.57;2.37;;;12.10;98.50;;;;;;10472637;28;20647;-78
2023/12/28 12:35:56;;;;;;;2.80;2.60;;;12.10;98.50;;;;;;10459513;28;20228;-78
2023/12/28 12:40:59;;;;;;;2.63;2.43;;;12.10;98.80;;;;;;10463903;28;20200;-78
2023/12/28 12:46:02;;;;;;;3.40;2.13;;;12.10;98.90;;;;;;10442919;28;20238;-79
2023/12/28 12:51:06;;;;;;;2.60;2.40;;;12.10;98.70;;;;;;10462718;28;20283;-78
2023/12/28 12:56:08;;;;;;;3.43;2.20;;;12.10;99.00;;;;;;10469901;28;20233;-78
2023/12/28 13:01:11;;;;;;;2.60;2.40;;;12.10;99.20;;;;;;10450519;28;20662;-77
2023/12/28 13:06:15;;;;;;;3.70;2.70;;;12.10;99.50;;;;;;10471419;28;20231;-78
2023/12/28 13:11:17;;;;;;;2.57;2.37;;;12.10;99.50;;;;;;10468003;28;20246;-78
2023/12/28 13:16:20;;;;;;;2.37;2.27;;;12.10;99.40;;;;;;10448095;28;20225;-78
2023/12/28 13:21:24;;;;;;;12.30;3.10;;;12.20;99.50;;;;;;10449120;28;20193;-78
2023/12/28 13:26:26;;;;;;;2.77;2.17;;;12.20;99.60;;;;;;10468166;28;20221;-78
2023/12/28 13:31:28;;;;;;;3.13;2.90;;;12.20;99.80;;;;;;10449883;28;20232;-78
2023/12/28 13:36:34;;;;;;;4.40;3.00;;;12.20;99.80;;;;;;10485264;28;20213;-78
2023/12/28 13:41:36;;;;;;;3.37;3.07;;;12.20;99.90;;;;;;10467140;28;20263;-78
2023/12/28 13:46:39;;;;;;;4.63;2.43;;;12.20;99.90;;;;;;10483528;28;20639;-79
2023/12/28 13:51:42;;;;;;;3.10;2.20;;;12.20;99.90;;;;;;10448194;28;20228;-78
2023/12/28 13:56:45;;;;;;;2.30;1.80;;;12.20;99.90;;;;;;10472824;28;20225;-77
2023/12/28 14:01:47;;;;;;;2.47;2.27;;;12.30;99.90;;;;;;10458215;28;20250;-77
2023/12/28 14:06:51;;;;;;;1.80;1.70;;;12.30;99.90;;;;;;10490454;28;20220;-77
2023/12/28 14:11:53;;;;;;;2.30;2.10;;;12.30;99.90;;;;;;10462120;28;20263;-77
2023/12/28 14:16:55;;;;;;;2.53;2.40;;;12.30;99.90;;;;;;10474310;28;20748;-76
2023/12/28 14:22:00;;;;;;;2.50;2.30;;;12.30;99.90;;;;;;10480271;28;20223;-76
2023/12/28 14:27:03;;;;;;;2.10;1.90;;;12.30;99.90;;;;;;10473605;28;20224;-76
2023/12/28 14:32:06;;;;;;;2.43;2.00;;;12.20;99.90;;;;;;10462018;28;20702;-77
2023/12/28 14:37:10;;;;;;;2.30;2.10;;;12.10;99.90;;;;;;10474940;28;20629;-77
2023/12/28 14:42:13;;;;;;;3.10;2.77;;;12.10;99.90;;;;;;10462305;28;20247;-76
2023/12/28 14:47:15;;;;;;;2.40;2.30;;;12.10;99.90;;;;;;10471800;28;20220;-76
2023/12/28 14:52:19;;;;;;;3.97;3.57;;;12.00;99.90;;;;;;10480345;28;20299;-76
2023/12/28 14:57:23;;;;;;;3.80;3.50;;;12.00;99.90;;;;;;10453034;28;20240;-77
2023/12/28 15:02:25;;;;;;;3.43;3.23;;;12.00;99.90;;;;;;10480582;28;20177;-76
2023/12/28 15:07:29;;;;;;;2.83;2.63;;;12.00;99.90;;;;;;10477552;28;20212;-76
2023/12/28 15:12:32;;;;;;;2.80;2.40;;;12.00;99.90;;;;;;10480556;28;20216;-76
2023/12/28 15:17:35;;;;;;;3.50;3.20;;;12.00;99.90;;;;;;10451329;28;20224;-77
2023/12/28 15:22:39;;;;;;;3.20;2.93;;;12.00;99.90;;;;;;10480909;28;20205;-76
2023/12/28 15:27:41;;;;;;;3.73;2.87;;;12.00;99.90;;;;;;10468344;28;20227;-77
2023/12/28 15:32:44;;;;;;;6.60;3.20;;;11.90;99.90;;;;;;10480527;28;20657;-77
2023/12/28 15:37:50;;;;;;;3.03;2.83;;;11.90;99.90;;;;;;10469245;28;20274;-77
2023/12/28 15:42:53;;;;;;;2.97;2.60;;;11.90;99.90;;;;;;10480965;28;20263;-76
2023/12/28 15:47:56;;;;;;;5.50;3.27;;;11.90;99.90;;;;;;10473794;28;20221;-77
2023/12/28 15:52:59;;;;;;;7.93;2.90;;;11.90;99.90;;;;;;10466366;28;20270;-76
2023/12/28 15:58:02;;;;;;;2.80;2.60;;;11.90;99.90;;;;;;10480884;28;20221;-76
2023/12/28 16:03:05;;;;;;;2.40;2.30;;;11.90;99.90;;;;;;10465990;28;20211;-76
2023/12/28 16:08:08;;;;;;;2.87;2.63;;;11.90;99.90;;;;;;10480146;28;20247;-77
2023/12/28 16:13:11;;;;;;;2.97;2.77;;;11.90;99.90;;;;;;10477352;28;20216;-76
2023/12/28 16:18:14;;;;;;;4.37;3.30;;;11.90;99.90;;;;;;10469844;28;20592;-76
2023/12/28 16:23:19;;;;;;;2.90;2.63;;;11.90;99.90;;;;;;10473795;28;20242;-76
2023/12/28 16:28:21;;;;;;;4.23;3.93;;;11.80;99.90;;;;;;10479508;28;20208;-76
2023/12/28 16:33:23;;;;;;;4.50;3.00;;;11.80;99.90;;;;;;10470225;28;20216;-76
2023/12/28 16:38:27;;;;;;;3.20;3.00;;;11.70;99.90;;;;;;10471642;28;20208;-76
2023/12/28 16:43:30;;;;;;;3.50;3.20;;;11.70;99.90;;;;;;10469963;28;20215;-76
2023/12/28 16:48:33;;;;;;;3.53;3.23;;;11.70;99.90;;;;;;10472609;28;20213;-76
2023/12/28 16:53:37;;;;;;;3.43;3.20;;;11.70;99.90;;;;;;10469101;28;20224;-76
2023/12/28 16:58:39;;;;;;;3.30;3.00;;;11.70;99.90;;;;;;10470413;28;20285;-76
2023/12/28 17:03:41;;;;;;;5.57;3.50;;;11.70;99.90;;;;;;10484700;28;20778;-77
2023/12/28 17:08:46;;;;;;;3.40;3.20;;;11.70;99.90;;;;;;10471065;28;20184;-76
2023/12/28 17:13:49;;;;;;;3.60;3.30;;;11.70;99.90;;;;;;10463106;28;20621;-76
2023/12/28 17:18:51;;;;;;;3.23;3.03;;;11.70;99.90;;;;;;10474795;28;20200;-77
2023/12/28 17:23:56;;;;;;;3.60;3.40;;;11.70;99.90;;;;;;10463808;28;20744;-77
2023/12/28 17:29:05;;;;;;;3.83;3.30;;;11.70;99.90;;;;;;10476009;28;20267;-78
2023/12/28 17:34:08;;;;;;;4.57;3.60;;;11.60;99.90;;;;;;10453994;28;20585;-78
2023/12/28 17:39:12;;;;;;;5.63;4.00;;;11.60;99.90;;;;;;10468206;28;20255;-78
2023/12/28 17:44:17;;;;;;;4.33;4.03;;;11.60;99.90;;;;;;10477607;28;20224;-77
2023/12/28 17:49:25;;;;;;;4.90;4.50;;;11.50;99.90;;;;;;10470129;28;20204;-78
2023/12/28 17:54:28;;;;;;;4.10;3.80;;;11.50;99.90;;;;;;10454892;28;20233;-77
2023/12/28 17:59:31;;;;;;;3.97;3.70;;;11.50;99.90;;;;;;10473968;28;20207;-77
2023/12/28 18:04:33;;;;;;;4.03;3.73;;;11.50;99.90;;;;;;10486983;28;21122;-77
2023/12/28 18:09:40;;;;;;;5.20;4.73;;;11.50;99.90;;;;;;10457861;28;20204;-78
2023/12/28 18:14:42;;;;;;;4.53;4.13;;;11.50;99.90;;;;;;10466339;28;20233;-78
2023/12/28 18:19:46;;;;;;;4.17;3.87;;;11.50;99.90;;;;;;10460032;28;20215;-77
2023/12/28 18:24:49;;;;;;;3.60;3.30;;;11.50;99.90;;;;;;10457155;28;20216;-77
2023/12/28 18:29:53;;;;;;;3.97;3.57;;;11.50;99.90;;;;;;10485357;28;20201;-77
2023/12/28 18:34:55;;;;;;;3.83;3.53;;;11.50;99.90;;;;;;10460816;28;20251;-78
2023/12/28 18:39:59;;;;;;;4.20;3.90;;;11.50;99.90;;;;;;10486426;28;20204;-77
2023/12/28 18:45:01;;;;;;;3.87;3.47;;;11.50;99.90;;;;;;10463060;28;20224;-77
2023/12/28 18:50:04;;;;;;;3.77;3.30;;;11.50;99.90;;;;;;10473255;28;20209;-78
2023/12/28 18:55:08;;;;;;;8.43;3.30;;;11.50;99.90;;;;;;10487143;28;20712;-79
2023/12/28 19:00:12;;;;;;;4.00;3.80;;;11.40;99.90;;;;;;10463955;28;20425;-77
2023/12/28 19:05:17;;;;;;;3.80;3.60;;;11.50;99.90;;;;;;10469831;28;20208;-77
2023/12/28 19:10:21;;;;;;;3.90;3.63;;;11.40;99.90;;;;;;10478455;28;20201;-78
2023/12/28 19:15:23;;;;;;;4.20;3.70;;;11.40;99.90;;;;;;10459820;28;20224;-77
2023/12/28 19:20:26;;;;;;;5.83;4.90;;;11.40;99.90;;;;;;10486494;28;20576;-77
2023/12/28 19:25:30;;;;;;;3.00;2.80;;;11.40;99.90;;;;;;10441012;28;20220;-78
2023/12/28 19:30:33;;;;;;;3.00;2.80;;;11.40;99.90;;;;;;10488257;28;20247;-77
2023/12/28 19:35:35;;;;;;;3.10;2.90;;;11.40;99.90;;;;;;10478502;28;20228;-77
2023/12/28 19:40:39;;;;;;;3.60;3.30;;;11.40;99.90;;;;;;10486992;28;20255;-78
2023/12/28 19:45:41;;;;;;;3.30;3.10;;;11.40;99.90;;;;;;10478449;28;20646;-78
2023/12/28 19:50:44;;;;;;;3.37;3.07;;;11.40;99.90;;;;;;10440978;28;20673;-77
2023/12/28 19:55:48;;;;;;;3.60;3.40;;;11.40;99.90;;;;;;10495331;28;20221;-78
2023/12/28 20:00:50;;;;;;;3.20;3.00;;;11.30;99.90;;;;;;10487705;28;20670;-77
2023/12/28 20:05:54;;;;;;;3.73;2.70;;;11.30;99.90;;;;;;10482118;28;20212;-77
2023/12/28 20:10:58;;;;;;;3.30;3.10;;;11.40;99.90;;;;;;10491739;28;20230;-77
2023/12/28 20:16:00;;;;;;;3.13;2.97;;;11.40;99.90;;;;;;10435020;28;20225;-77
2023/12/28 20:21:02;;;;;;;4.13;3.80;;;11.40;99.90;;;;;;10488098;28;20223;-77
2023/12/28 20:26:07;;;;;;;2.77;2.63;;;11.40;99.90;;;;;;10453698;28;20259;-77
2023/12/28 20:31:09;;;;;;;3.10;2.90;;;11.40;99.90;;;;;;10489886;28;20670;-77
2023/12/28 20:36:12;;;;;;;2.40;2.30;;;11.40;99.90;;;;;;10456105;28;20221;-77
2023/12/28 20:41:17;;;;;;;3.20;3.00;;;11.40;99.90;;;;;;10448549;28;20209;-77
2023/12/28 20:46:20;;;;;;;3.33;3.13;;;11.40;99.90;;;;;;10489966;28;20213;-78
2023/12/28 20:51:22;;;;;;;3.20;3.00;;;11.30;99.90;;;;;;10486847;28;20681;-77
2023/12/28 20:56:26;;;;;;;3.17;2.97;;;11.30;99.90;;;;;;10483158;28;20297;-77
2023/12/28 21:01:28;;;;;;;3.20;3.00;;;11.30;99.90;;;;;;10470246;28;20204;-77
2023/12/28 21:06:31;;;;;;;3.10;2.90;;;11.30;99.90;;;;;;10466714;28;20640;-77
2023/12/28 21:11:35;;;;;;;2.90;2.70;;;11.30;99.90;;;;;;10450311;28;20200;-78
2023/12/28 21:16:37;;;;;;;2.67;2.47;;;11.30;99.90;;;;;;10452559;28;20220;-77
2023/12/28 21:21:39;;;;;;;2.57;2.47;;;11.30;99.90;;;;;;10449207;28;20212;-77
2023/12/28 21:26:44;;;;;;;2.60;2.50;;;11.30;99.90;;;;;;10489659;28;20219;-76
2023/12/28 21:31:46;;;;;;;1.87;1.77;;;11.30;99.90;;;;;;10443954;28;20757;-77
2023/12/28 21:36:48;;;;;;;1.90;1.80;;;11.30;99.90;;;;;;10472328;28;20216;-77
2023/12/28 21:41:52;;;;;;;2.27;2.17;;;11.30;99.90;;;;;;10450739;28;20204;-77
2023/12/28 21:46:54;;;;;;;2.47;2.20;;;11.30;99.90;;;;;;10488164;28;20216;-77
2023/12/28 21:51:57;;;;;;;2.43;2.30;;;11.30;99.90;;;;;;10451383;28;20675;-78
2023/12/28 21:57:01;;;;;;;2.00;1.90;;;11.30;99.90;;;;;;10487362;28;20228;-78
2023/12/28 22:02:04;;;;;;;2.20;2.00;;;11.40;99.90;;;;;;10474390;28;20195;-77
2023/12/28 22:07:08;;;;;;;2.30;2.20;;;11.40;99.90;;;;;;10457230;28;20266;-77
2023/12/28 22:12:12;;;;;;;2.60;2.50;;;11.40;99.90;;;;;;10451489;28;20206;-78
2023/12/28 22:17:15;;;;;;;1.70;1.60;;;11.30;99.90;;;;;;10488723;28;20228;-79
2023/12/28 22:22:17;;;;;;;2.40;2.30;;;11.30;99.90;;;;;;10469708;28;20654;-79
2023/12/28 22:27:21;;;;;;;1.93;1.83;;;11.20;99.90;;;;;;10470948;28;20583;-79
2023/12/28 22:32:23;;;;;;;2.27;2.17;;;11.20;99.90;;;;;;10447136;28;20736;-78
2023/12/28 22:37:25;;;;;;;2.27;2.10;;;11.10;99.90;;;;;;10466345;28;20535;-78
2023/12/28 22:42:29;;;;;;;2.40;2.30;;;11.10;99.90;;;;;;10463921;28;20190;-78
2023/12/28 22:47:32;;;;;;;2.10;2.00;;;11.10;99.90;;;;;;10497111;28;20212;-78
2023/12/28 22:52:34;;;;;;;2.50;2.30;;;11.00;99.90;;;;;;10463699;28;20682;-78
2023/12/28 22:57:38;;;;;;;2.60;2.23;;;11.00;99.90;;;;;;10473014;28;20232;-78
2023/12/28 23:02:40;;;;;;;3.20;2.90;;;11.10;99.90;;;;;;10465471;28;20197;-78
2023/12/28 23:07:43;;;;;;;3.90;2.57;;;11.10;99.90;;;;;;10495131;28;20212;-78
2023/12/28 23:12:46;;;;;;;2.53;2.37;;;11.10;99.90;;;;;;10467424;28;20674;-78
2023/12/28 23:17:49;;;;;;;2.73;2.63;;;11.10;99.90;;;;;;10466035;28;20761;-78
2023/12/28 23:22:52;;;;;;;3.50;3.30;;;11.20;99.90;;;;;;10493761;28;20204;-78
2023/12/28 23:27:55;;;;;;;2.93;2.70;;;11.20;99.90;;;;;;10465788;28;20221;-78
2023/12/28 23:32:59;;;;;;;2.83;2.63;;;11.20;99.90;;;;;;10491608;28;20197;-78
2023/12/28 23:38:02;;;;;;;3.07;2.87;;;11.20;99.90;;;;;;10497031;28;20697;-79
2023/12/28 23:43:07;;;;;;;3.40;3.20;;;11.10;99.90;;;;;;10485590;28;20610;-78
2023/12/28 23:48:09;;;;;;;3.87;3.53;;;11.00;99.90;;;;;;10478170;28;20279;-78
2023/12/28 23:53:12;;;;;;;3.03;2.83;;;11.10;99.90;;;;;;10491224;28;20193;-78
2023/12/28 23:58:15;;;;;;;3.60;3.40;;;11.10;99.90;;;;;;10465985;28;20226;-78
